createdAt,value
2022-11-24T00:01:23.665Z,97671.38
2022-11-24T00:03:54.950Z,97670.44
2022-11-24T00:06:21.660Z,97677.75
2022-11-24T00:08:48.674Z,97679.72
2022-11-24T00:11:18.186Z,97684.78
2022-11-24T00:13:45.054Z,97685.75
2022-11-24T00:16:21.790Z,97692.34
2022-11-24T00:18:50.652Z,97689.44
2022-11-24T00:21:18.772Z,97700.34
2022-11-24T00:23:46.555Z,97699.19
2022-11-24T00:26:16.386Z,97698.19
2022-11-24T00:28:44.442Z,97696.53
2022-11-24T00:31:23.079Z,97704.34
2022-11-24T00:33:52.318Z,97703.47
2022-11-24T00:36:20.861Z,97695.34
2022-11-24T00:38:48.260Z,97688.34
2022-11-24T00:41:14.912Z,97687.78
2022-11-24T00:43:41.592Z,97694.50
2022-11-24T00:46:08.543Z,97686.13
2022-11-24T00:48:35.415Z,97693.63
2022-11-24T00:51:04.355Z,97694.25
2022-11-24T00:53:31.366Z,97697.22
2022-11-24T00:55:58.130Z,97686.34
2022-11-24T00:58:25.582Z,97681.00
2022-11-24T01:00:52.860Z,97690.75
2022-11-24T01:03:21.156Z,97681.97
2022-11-24T01:05:48.589Z,97699.00
2022-11-24T01:08:15.391Z,97695.28
2022-11-24T01:10:42.086Z,97704.50
2022-11-24T01:13:08.781Z,97703.06
2022-11-24T01:15:36.201Z,97705.38
2022-11-24T01:18:04.109Z,97707.00
2022-11-24T01:20:31.471Z,97712.50
2022-11-24T01:22:58.504Z,97706.78
2022-11-24T01:25:25.207Z,97704.00
2022-11-24T01:27:51.954Z,97706.16
2022-11-24T01:30:18.721Z,97705.09
2022-11-24T01:32:46.453Z,97713.78
2022-11-24T01:35:13.087Z,97711.81
2022-11-24T01:37:39.772Z,97722.88
2022-11-24T01:40:07.269Z,97718.38
2022-11-24T01:42:43.372Z,97717.31
2022-11-24T01:45:35.262Z,97724.63
2022-11-24T01:48:05.961Z,97719.84
2022-11-24T01:50:35.580Z,97719.94
2022-11-24T01:53:03.051Z,97731.38
2022-11-24T01:55:36.558Z,97721.81
2022-11-24T01:58:07.208Z,97728.91
2022-11-24T02:00:37.162Z,97729.78
2022-11-24T02:03:04.274Z,97727.09
2022-11-24T02:05:42.025Z,97724.53
2022-11-24T02:08:20.895Z,97729.00
2022-11-24T02:10:48.490Z,97729.78
2022-11-24T02:13:15.633Z,97730.66
2022-11-24T02:15:42.831Z,97729.69
2022-11-24T02:18:09.635Z,97721.72
2022-11-24T02:20:36.545Z,97726.28
2022-11-24T02:23:22.868Z,97726.28
2022-11-24T02:26:01.673Z,97733.59
2022-11-24T02:28:30.742Z,97730.78
2022-11-24T02:30:59.796Z,97735.97
2022-11-24T02:33:27.269Z,97730.00
2022-11-24T02:35:54.051Z,97737.06
2022-11-24T02:38:29.814Z,97740.59
2022-11-24T02:40:57.456Z,97735.31
2022-11-24T02:43:24.413Z,97744.81
2022-11-24T02:45:51.229Z,97743.09
2022-11-24T02:48:18.439Z,97747.09
2022-11-24T02:50:45.124Z,97749.91
2022-11-24T02:53:11.860Z,97743.88
2022-11-24T02:55:38.634Z,97749.41
2022-11-24T02:58:05.278Z,97748.16
2022-11-24T03:00:32.114Z,97748.09
2022-11-24T03:02:58.915Z,97744.47
2022-11-24T03:05:26.131Z,97733.31
2022-11-24T03:07:52.783Z,97747.06
2022-11-24T03:10:19.567Z,97750.81
2022-11-24T03:12:46.262Z,97745.50
2022-11-24T03:15:12.926Z,97755.00
2022-11-24T03:17:39.654Z,97747.53
2022-11-24T03:20:06.997Z,97758.31
2022-11-24T03:22:33.867Z,97762.22
2022-11-24T03:25:01.008Z,97761.94
2022-11-24T03:27:27.727Z,97759.66
2022-11-24T03:29:54.360Z,97752.75
2022-11-24T03:32:20.980Z,97754.59
2022-11-24T03:34:47.640Z,97765.34
2022-11-24T03:37:14.808Z,97763.16
2022-11-24T03:39:41.634Z,97757.81
2022-11-24T03:42:08.553Z,97763.66
2022-11-24T03:44:35.489Z,97765.22
2022-11-24T03:47:02.322Z,97763.75
2022-11-24T03:49:29.228Z,97767.06
2022-11-24T03:51:55.876Z,97763.44
2022-11-24T03:54:22.664Z,97756.41
2022-11-24T03:56:49.455Z,97749.38
2022-11-24T03:59:16.210Z,97752.97
2022-11-24T04:01:42.971Z,97744.09
2022-11-24T04:04:11.132Z,97746.81
2022-11-24T04:06:38.345Z,97748.38
2022-11-24T04:09:05.229Z,97749.84
2022-11-24T04:12:04.338Z,97760.25
2022-11-24T04:14:31.200Z,97755.00
2022-11-24T04:16:58.073Z,97761.25
2022-11-24T04:19:24.703Z,97776.03
2022-11-24T04:21:51.406Z,97777.28
2022-11-24T04:24:18.082Z,97779.50
2022-11-24T04:26:44.730Z,97760.69
2022-11-24T04:29:11.425Z,97774.63
2022-11-24T04:31:38.219Z,97772.81
2022-11-24T04:34:04.941Z,97784.09
2022-11-24T04:36:31.657Z,97774.75
2022-11-24T04:39:23.025Z,97776.78
2022-11-24T04:41:47.264Z,97783.13
2022-11-24T04:44:14.211Z,97793.72
2022-11-24T04:46:40.906Z,97800.97
2022-11-24T04:49:11.529Z,97802.16
2022-11-24T04:51:41.498Z,97804.59
2022-11-24T04:54:11.108Z,97810.66
2022-11-24T04:56:38.199Z,97813.47
2022-11-24T04:59:08.440Z,97818.84
2022-11-24T05:01:35.475Z,97813.69
2022-11-24T05:04:02.290Z,97815.81
2022-11-24T05:06:28.916Z,97813.25
2022-11-24T05:08:55.676Z,97816.97
2022-11-24T05:11:22.359Z,97813.78
2022-11-24T05:13:49.109Z,97820.13
2022-11-24T05:16:16.023Z,97826.94
2022-11-24T05:18:42.746Z,97822.25
2022-11-24T05:21:09.631Z,97831.84
2022-11-24T05:23:36.376Z,97831.19
2022-11-24T05:26:04.157Z,97829.41
2022-11-24T05:28:31.635Z,97825.28
2022-11-24T05:31:00.618Z,97834.47
2022-11-24T05:33:29.538Z,97828.34
2022-11-24T05:36:01.745Z,97837.34
2022-11-24T05:38:29.586Z,97832.41
2022-11-24T05:41:04.601Z,97846.03
2022-11-24T05:43:31.531Z,97841.31
2022-11-24T05:46:01.765Z,97842.03
2022-11-24T05:48:28.848Z,97830.75
2022-11-24T05:50:56.990Z,97838.19
2022-11-24T05:53:24.312Z,97849.44
2022-11-24T05:55:51.037Z,97854.63
2022-11-24T05:58:18.071Z,97862.09
2022-11-24T06:00:44.773Z,97862.84
2022-11-24T06:03:12.251Z,97863.63
2022-11-24T06:05:39.208Z,97861.66
2022-11-24T06:08:06.058Z,97861.19
2022-11-24T06:10:32.666Z,97859.63
2022-11-24T06:12:59.398Z,97858.56
2022-11-24T06:15:26.125Z,97861.88
2022-11-24T06:17:57.045Z,97863.91
2022-11-24T06:20:29.758Z,97857.66
2022-11-24T06:22:58.961Z,97865.00
2022-11-24T06:25:26.264Z,97867.63
2022-11-24T06:27:53.017Z,97868.63
2022-11-24T06:30:19.735Z,97866.84
2022-11-24T06:32:49.763Z,97867.66
2022-11-24T06:35:17.296Z,97873.63
2022-11-24T06:37:44.147Z,97877.28
2022-11-24T06:40:11.046Z,97876.53
2022-11-24T06:42:38.050Z,97889.72
2022-11-24T06:45:09.020Z,97888.28
2022-11-24T06:47:36.650Z,97881.56
2022-11-24T06:50:03.585Z,97893.66
2022-11-24T06:52:30.675Z,97895.22
2022-11-24T06:54:57.401Z,97895.19
2022-11-24T06:57:24.163Z,97903.63
2022-11-24T06:59:50.975Z,97903.72
2022-11-24T07:02:17.650Z,97910.06
2022-11-24T07:04:44.348Z,97913.41
2022-11-24T07:07:11.110Z,97915.38
2022-11-24T07:09:37.919Z,97933.44
2022-11-24T07:12:05.892Z,97934.19
2022-11-24T07:14:33.131Z,97931.63
2022-11-24T07:17:02.386Z,97936.44
2022-11-24T07:19:29.047Z,97945.91
2022-11-24T07:21:55.770Z,97945.56
2022-11-24T07:24:22.435Z,97954.16
2022-11-24T07:26:49.065Z,97966.28
2022-11-24T07:29:15.867Z,97967.94
2022-11-24T07:31:42.654Z,97976.34
2022-11-24T07:34:09.443Z,97985.25
2022-11-24T07:36:36.118Z,97987.78
2022-11-24T07:39:02.863Z,98000.00
2022-11-24T07:41:29.601Z,97992.91
2022-11-24T07:43:56.316Z,98000.00
2022-11-24T07:46:23.078Z,98009.63
2022-11-24T07:48:49.894Z,98011.16
2022-11-24T07:51:17.014Z,98007.38
2022-11-24T07:53:44.923Z,98021.84
2022-11-24T07:56:12.559Z,98022.25
2022-11-24T07:58:39.317Z,98021.66
2022-11-24T08:01:11.538Z,98031.28
2022-11-24T08:03:38.597Z,98033.09
2022-11-24T08:06:23.961Z,98042.97
2022-11-24T08:08:52.115Z,98045.53
2022-11-24T08:11:18.896Z,98045.25
2022-11-24T08:13:45.903Z,98052.47
2022-11-24T08:16:17.611Z,98055.09
2022-11-24T08:18:48.985Z,98061.09
2022-11-24T08:21:15.659Z,98067.81
2022-11-24T08:23:42.825Z,98056.50
2022-11-24T08:26:18.801Z,98063.50
2022-11-24T08:28:46.789Z,98070.28
2022-11-24T08:31:16.368Z,98068.16
2022-11-24T08:33:43.496Z,98078.59
2022-11-24T08:36:12.522Z,98075.84
2022-11-24T08:38:39.407Z,98077.66
2022-11-24T08:41:12.297Z,98084.28
2022-11-24T08:43:39.383Z,98087.91
2022-11-24T08:46:12.314Z,98089.69
2022-11-24T08:48:39.200Z,98082.72
2022-11-24T08:51:12.097Z,98081.56
2022-11-24T08:53:39.872Z,98099.09
2022-11-24T08:56:07.984Z,98090.63
2022-11-24T08:58:35.579Z,98103.44
2022-11-24T09:01:16.976Z,98103.41
2022-11-24T09:03:50.688Z,98106.94
2022-11-24T09:06:23.513Z,98106.22
2022-11-24T09:08:53.834Z,98108.66
2022-11-24T09:11:20.735Z,98107.38
2022-11-24T09:13:47.621Z,98113.84
2022-11-24T09:16:17.658Z,98119.09
2022-11-24T09:18:45.041Z,98125.13
2022-11-24T09:21:20.303Z,98133.63
2022-11-24T09:23:49.292Z,98125.50
2022-11-24T09:26:27.861Z,98130.03
2022-11-24T09:28:56.291Z,98136.94
2022-11-24T09:31:33.472Z,98147.66
2022-11-24T09:34:01.835Z,98154.72
2022-11-24T09:36:29.174Z,98149.19
2022-11-24T09:38:55.887Z,98153.91
2022-11-24T09:41:49.882Z,98162.13
2022-11-24T09:44:45.931Z,98162.03
2022-11-24T09:47:30.945Z,98161.84
2022-11-24T09:50:09.510Z,98166.03
2022-11-24T09:53:03.615Z,98178.59
2022-11-24T09:55:44.577Z,98172.16
2022-11-24T09:58:35.467Z,98174.53
2022-11-24T10:01:07.905Z,98186.09
2022-11-24T10:03:39.463Z,98185.06
2022-11-24T10:06:16.225Z,98182.69
2022-11-24T10:08:58.144Z,98183.31
2022-11-24T10:11:38.678Z,98190.41
2022-11-24T10:14:26.719Z,98180.31
2022-11-24T10:17:15.022Z,98184.44
2022-11-24T10:19:51.014Z,98181.66
2022-11-24T10:22:38.361Z,98192.28
2022-11-24T10:25:08.012Z,98198.34
2022-11-24T10:27:42.840Z,98188.31
2022-11-24T10:30:19.859Z,98199.25
2022-11-24T10:32:49.162Z,98194.41
2022-11-24T10:35:28.564Z,98203.09
2022-11-24T10:38:07.569Z,98205.16
2022-11-24T10:41:02.213Z,98209.41
2022-11-24T10:43:29.310Z,98207.63
2022-11-24T10:46:09.754Z,98205.41
2022-11-24T10:48:50.770Z,98209.44
2022-11-24T10:51:54.218Z,98208.75
2022-11-24T10:54:22.957Z,98214.00
2022-11-24T10:56:52.569Z,98207.50
2022-11-24T10:59:25.470Z,98210.19
2022-11-24T11:01:53.087Z,98214.88
2022-11-24T11:04:22.013Z,98215.72
2022-11-24T11:06:48.679Z,98220.75
2022-11-24T11:09:19.390Z,98211.56
2022-11-24T11:11:48.693Z,98212.22
2022-11-24T11:14:35.524Z,98217.19
2022-11-24T11:17:03.699Z,98211.97
2022-11-24T11:19:49.308Z,98208.81
2022-11-24T11:22:32.153Z,98196.84
2022-11-24T11:25:11.147Z,98203.38
2022-11-24T11:27:39.648Z,98210.94
2022-11-24T11:36:11.457Z,98187.16
2022-11-24T11:38:39.728Z,98199.94
2022-11-24T11:41:13.901Z,98198.34
2022-11-24T11:43:41.435Z,98207.22
2022-11-24T11:46:08.242Z,98218.97
2022-11-24T11:48:43.176Z,98221.59
2022-11-24T11:51:25.903Z,98224.16
2022-11-24T11:54:09.561Z,98225.25
2022-11-24T11:56:45.264Z,98217.25
2022-11-24T11:59:41.826Z,98219.47
2022-11-24T12:02:39.757Z,98231.78
2022-11-24T12:05:39.001Z,98231.00
2022-11-24T12:08:55.827Z,98233.53
2022-11-24T12:11:45.909Z,98225.47
2022-11-24T12:14:20.935Z,98210.31
2022-11-24T12:17:07.261Z,98213.31
2022-11-24T12:19:42.807Z,98208.06
2022-11-24T12:22:18.182Z,98203.78
2022-11-24T12:24:50.941Z,98207.50
2022-11-24T12:27:42.812Z,98210.22
2022-11-24T12:30:14.035Z,98221.75
2022-11-24T12:32:53.166Z,98214.56
2022-11-24T12:35:36.953Z,98223.22
2022-11-24T12:38:15.467Z,98219.72
2022-11-24T12:41:40.603Z,98226.28
2022-11-24T12:44:10.843Z,98227.03
2022-11-24T12:46:48.614Z,98224.16
2022-11-24T12:49:29.576Z,98214.44
2022-11-24T12:52:05.900Z,98221.41
2022-11-24T12:54:39.597Z,98220.38
2022-11-24T12:57:14.514Z,98229.91
2022-11-24T13:00:00.298Z,98224.41
2022-11-24T13:02:40.025Z,98227.75
2022-11-24T13:05:34.882Z,98226.91
2022-11-24T13:08:05.279Z,98220.09
2022-11-24T13:13:35.438Z,98218.13
2022-11-24T13:19:32.273Z,98213.13
2022-11-24T13:22:08.247Z,98211.19
2022-11-24T13:24:38.990Z,98196.69
2022-11-24T13:27:19.692Z,98212.81
2022-11-24T13:29:48.031Z,98204.47
2022-11-24T13:32:14.666Z,98201.19
2022-11-24T13:34:42.610Z,98207.63
2022-11-24T13:37:31.458Z,98207.06
2022-11-24T13:40:23.287Z,98205.47
2022-11-24T13:43:01.895Z,98210.16
2022-11-24T13:45:41.044Z,98208.28
2022-11-24T13:48:20.200Z,98209.72
2022-11-24T13:50:50.541Z,98203.50
2022-11-24T13:53:47.221Z,98200.50
2022-11-24T13:56:13.931Z,98209.41
2022-11-24T13:58:47.615Z,98199.41
2022-11-24T14:01:28.752Z,98200.44
2022-11-24T14:04:29.801Z,98192.47
2022-11-24T14:07:07.486Z,98191.16
2022-11-24T14:09:42.058Z,98191.13
2022-11-24T14:12:20.099Z,98187.59
2022-11-24T14:14:49.049Z,98185.84
2022-11-24T14:17:20.437Z,98182.59
2022-11-24T14:19:49.649Z,98184.97
2022-11-24T14:22:39.183Z,98192.22
2022-11-24T14:25:19.520Z,98194.34
2022-11-24T14:27:46.368Z,98202.63
2022-11-24T14:30:13.555Z,98186.53
2022-11-24T14:32:42.210Z,98187.72
2022-11-24T14:35:26.282Z,98181.22
2022-11-24T14:37:53.577Z,98178.84
2022-11-24T14:40:56.276Z,98171.31
2022-11-24T14:43:25.550Z,98175.63
2022-11-24T14:45:59.361Z,98172.00
2022-11-24T14:48:33.367Z,98182.19
2022-11-24T14:51:08.394Z,98183.22
2022-11-24T14:53:35.610Z,98184.38
2022-11-24T14:56:08.972Z,98184.63
2022-11-24T14:58:41.748Z,98192.13
2022-11-24T15:01:18.189Z,98200.84
2022-11-24T15:03:45.512Z,98191.81
2022-11-24T15:06:19.386Z,98197.47
2022-11-24T15:08:48.677Z,98192.59
2022-11-24T15:11:15.747Z,98184.56
2022-11-24T15:13:53.627Z,98188.97
2022-11-24T15:16:24.348Z,98187.44
2022-11-24T15:19:02.005Z,98195.66
2022-11-24T15:21:37.326Z,98188.81
2022-11-24T15:24:18.770Z,98188.34
2022-11-24T15:26:45.993Z,98195.56
2022-11-24T15:29:13.264Z,98198.47
2022-11-24T15:31:41.135Z,98204.97
2022-11-24T15:34:13.631Z,98202.50
2022-11-24T15:36:40.295Z,98206.19
2022-11-24T15:39:07.020Z,98201.97
2022-11-24T15:41:33.781Z,98204.13
2022-11-24T15:44:00.550Z,98202.75
2022-11-24T15:46:29.624Z,98211.78
2022-11-24T15:48:57.158Z,98208.47
2022-11-24T15:51:27.097Z,98211.34
2022-11-24T15:54:00.677Z,98220.41
2022-11-24T15:56:36.438Z,98222.34
2022-11-24T15:59:04.285Z,98215.53
2022-11-24T16:01:33.375Z,98215.81
2022-11-24T16:04:01.127Z,98222.25
2022-11-24T16:06:28.057Z,98227.66
2022-11-24T16:08:55.379Z,98223.13
2022-11-24T16:11:23.295Z,98221.56
2022-11-24T16:13:53.447Z,98223.56
2022-11-24T16:16:22.780Z,98221.97
2022-11-24T16:18:49.627Z,98226.47
2022-11-24T16:21:16.424Z,98225.69
2022-11-24T16:23:43.130Z,98233.84
2022-11-24T16:26:10.284Z,98238.31
2022-11-24T16:28:37.085Z,98240.09
2022-11-24T16:31:04.097Z,98237.53
2022-11-24T16:33:31.006Z,98240.28
2022-11-24T16:35:57.726Z,98228.06
2022-11-24T16:38:24.469Z,98229.88
2022-11-24T16:40:52.556Z,98231.72
2022-11-24T16:43:19.283Z,98233.72
2022-11-24T16:45:46.395Z,98236.47
2022-11-24T16:48:13.142Z,98240.03
2022-11-24T16:50:39.888Z,98244.50
2022-11-24T16:53:06.543Z,98237.56
2022-11-24T16:55:33.257Z,98233.22
2022-11-24T16:58:03.928Z,98232.44
2022-11-24T17:00:30.582Z,98230.75
2022-11-24T17:02:57.273Z,98229.88
2022-11-24T17:05:24.428Z,98228.09
2022-11-24T17:07:51.135Z,98228.13
2022-11-24T17:10:17.856Z,98236.03
2022-11-24T17:12:44.821Z,98233.19
2022-11-24T17:18:22.803Z,98233.47
2022-11-24T17:20:44.866Z,98237.97
2022-11-24T17:23:11.561Z,98232.59
2022-11-24T17:25:38.215Z,98238.00
2022-11-24T17:28:04.917Z,98236.22
2022-11-24T17:30:31.595Z,98231.00
2022-11-24T17:32:58.316Z,98230.97
2022-11-24T17:35:25.091Z,98233.72
2022-11-24T17:37:51.679Z,98235.59
2022-11-24T17:40:34.271Z,98228.66
2022-11-24T17:43:02.397Z,98236.66
2022-11-24T17:45:30.421Z,98229.66
2022-11-24T17:47:59.389Z,98231.34
2022-11-24T17:50:26.669Z,98227.91
2022-11-24T17:52:54.272Z,98224.47
2022-11-24T17:55:21.399Z,98225.44
2022-11-24T17:57:48.069Z,98226.38
2022-11-24T18:00:15.229Z,98229.91
2022-11-24T18:02:42.002Z,98229.91
2022-11-24T18:05:08.973Z,98229.97
2022-11-24T18:07:36.661Z,98227.34
2022-11-24T18:10:06.370Z,98233.47
2022-11-24T18:12:33.160Z,98221.25
2022-11-24T18:14:59.976Z,98217.81
2022-11-24T18:17:28.998Z,98216.09
2022-11-24T18:19:55.647Z,98207.41
2022-11-24T18:22:42.982Z,98212.78
2022-11-24T18:25:09.253Z,98206.69
2022-11-24T18:27:35.984Z,98210.25
2022-11-24T18:30:03.782Z,98209.31
2022-11-24T18:32:30.444Z,98217.16
2022-11-24T18:34:57.075Z,98208.44
2022-11-24T18:37:23.770Z,98218.16
2022-11-24T18:39:50.555Z,98222.50
2022-11-24T18:42:17.773Z,98238.38
2022-11-24T18:44:46.033Z,98234.06
2022-11-24T18:47:14.393Z,98227.09
2022-11-24T18:49:41.095Z,98235.06
2022-11-24T18:52:07.752Z,98233.31
2022-11-24T18:54:34.885Z,98234.13
2022-11-24T18:57:03.714Z,98234.13
2022-11-24T18:59:30.649Z,98240.34
2022-11-24T19:01:57.961Z,98236.97
2022-11-24T19:04:26.266Z,98236.13
2022-11-24T19:06:53.012Z,98236.97
2022-11-24T19:09:22.442Z,98232.56
2022-11-24T19:11:49.202Z,98229.09
2022-11-24T19:14:18.027Z,98233.50
2022-11-24T19:16:47.630Z,98229.03
2022-11-24T19:19:14.716Z,98228.16
2022-11-24T19:21:41.516Z,98224.66
2022-11-24T19:24:13.109Z,98228.16
2022-11-24T19:26:40.287Z,98237.00
2022-11-24T19:29:07.723Z,98237.06
2022-11-24T19:31:35.368Z,98225.66
2022-11-24T19:34:03.141Z,98234.50
2022-11-24T19:36:30.224Z,98229.31
2022-11-24T19:38:58.376Z,98229.41
2022-11-24T19:41:30.910Z,98228.56
2022-11-24T19:43:58.713Z,98229.47
2022-11-24T19:46:27.454Z,98222.50
2022-11-24T19:48:57.080Z,98221.66
2022-11-24T19:51:30.704Z,98213.84
2022-11-24T19:53:57.794Z,98214.75
2022-11-24T19:56:27.160Z,98214.72
2022-11-24T19:58:55.152Z,98227.06
2022-11-24T20:01:29.899Z,98225.34
2022-11-24T20:04:03.024Z,98218.34
2022-11-24T20:06:36.753Z,98221.88
2022-11-24T20:09:05.638Z,98212.22
2022-11-24T20:11:32.356Z,98213.06
2022-11-24T20:13:59.153Z,98210.34
2022-11-24T20:16:29.790Z,98205.97
2022-11-24T20:19:00.512Z,98203.38
2022-11-24T20:21:31.229Z,98213.97
2022-11-24T20:24:01.803Z,98218.19
2022-11-24T20:26:34.987Z,98219.75
2022-11-24T20:29:03.954Z,98208.41
2022-11-24T20:31:34.090Z,98216.94
2022-11-24T20:34:02.741Z,98221.19
2022-11-24T20:36:31.227Z,98227.28
2022-11-24T20:39:00.421Z,98220.19
2022-11-24T20:41:33.653Z,98214.19
2022-11-24T20:44:04.994Z,98217.50
2022-11-24T20:46:33.552Z,98214.16
2022-11-24T20:49:00.981Z,98220.09
2022-11-24T20:51:29.707Z,98209.53
2022-11-24T20:53:59.804Z,98212.16
2022-11-24T20:56:30.057Z,98211.41
2022-11-24T20:58:57.212Z,98206.97
2022-11-24T21:01:28.731Z,98203.50
2022-11-24T21:03:58.565Z,98210.53
2022-11-24T21:06:27.909Z,98210.53
2022-11-24T21:09:00.482Z,98211.41
2022-11-24T21:11:31.134Z,98214.91
2022-11-24T21:13:57.889Z,98207.09
2022-11-24T21:16:27.693Z,98204.47
2022-11-24T21:19:03.012Z,98206.28
2022-11-24T21:21:34.050Z,98209.84
2022-11-24T21:24:02.488Z,98201.97
2022-11-24T21:26:29.565Z,98205.47
2022-11-24T21:28:56.958Z,98213.38
2022-11-24T21:31:23.805Z,98206.41
2022-11-24T21:33:52.510Z,98209.97
2022-11-24T21:36:24.081Z,98205.41
2022-11-24T21:38:56.329Z,98209.84
2022-11-24T21:41:25.067Z,98212.44
2022-11-24T21:43:52.244Z,98213.28
2022-11-24T21:46:19.135Z,98207.84
2022-11-24T21:48:45.955Z,98214.72
2022-11-24T21:51:16.330Z,98219.88
2022-11-24T21:53:44.007Z,98212.72
2022-11-24T21:56:13.771Z,98214.38
2022-11-24T21:58:47.674Z,98199.34
2022-11-24T22:01:16.050Z,98214.31
2022-11-24T22:03:43.411Z,98206.53
2022-11-24T22:06:10.436Z,98204.72
2022-11-24T22:08:37.134Z,98202.06
2022-11-24T22:11:12.823Z,98197.63
2022-11-24T22:13:40.404Z,98201.13
2022-11-24T22:16:12.639Z,98196.66
2022-11-24T22:18:41.724Z,98200.06
2022-11-24T22:21:12.474Z,98200.88
2022-11-24T22:23:39.505Z,98198.16
2022-11-24T22:26:07.075Z,98196.34
2022-11-24T22:28:35.385Z,98211.28
2022-11-24T22:31:07.069Z,98209.44
2022-11-24T22:33:34.549Z,98215.47
2022-11-24T22:36:02.361Z,98209.28
2022-11-24T22:38:30.470Z,98209.13
2022-11-24T22:41:27.588Z,98203.00
2022-11-24T22:43:54.464Z,98200.25
2022-11-24T22:46:24.122Z,98198.50
2022-11-24T22:48:54.413Z,98196.81
2022-11-24T22:51:27.139Z,98197.66
2022-11-24T22:53:56.199Z,98200.34
2022-11-24T22:56:23.807Z,98197.00
2022-11-24T22:58:51.266Z,98196.06
2022-11-24T23:01:23.180Z,98197.09
2022-11-24T23:03:51.020Z,98193.53
2022-11-24T23:06:20.463Z,98190.03
2022-11-24T23:08:47.435Z,98199.69
2022-11-24T23:11:27.379Z,98197.13
2022-11-24T23:14:03.032Z,98197.09
2022-11-24T23:16:30.281Z,98196.25
2022-11-24T23:19:00.278Z,98201.53
2022-11-24T23:21:29.530Z,98203.31
2022-11-24T23:23:58.185Z,98195.47
2022-11-24T23:26:27.811Z,98195.47
2022-11-24T23:28:54.670Z,98201.69
2022-11-24T23:31:30.317Z,98195.59
2022-11-24T23:33:58.665Z,98195.59
2022-11-24T23:36:26.059Z,98188.56
2022-11-24T23:38:52.790Z,98197.31
2022-11-24T23:41:25.150Z,98197.38
2022-11-24T23:43:52.448Z,98195.75
2022-11-24T23:46:23.801Z,98199.34
2022-11-24T23:48:52.013Z,98203.66
2022-11-24T23:51:21.904Z,98201.97
2022-11-24T23:53:48.892Z,98192.28
2022-11-24T23:56:19.235Z,98181.88
2022-11-24T23:58:46.572Z,98195.09
